createdAt,value
2023-05-05T00:01:49.226Z,64.11
2023-05-05T00:04:17.960Z,64.17
2023-05-05T00:06:45.064Z,64.53
2023-05-05T00:09:12.734Z,64.10
2023-05-05T00:11:39.682Z,64.13
2023-05-05T00:14:06.745Z,64.44
2023-05-05T00:16:33.708Z,64.73
2023-05-05T00:19:00.584Z,64.80
2023-05-05T00:21:31.261Z,64.63
2023-05-05T00:23:58.110Z,64.60
2023-05-05T00:26:25.039Z,64.24
2023-05-05T00:28:52.439Z,64.26
2023-05-05T00:31:19.386Z,64.69
2023-05-05T00:33:46.836Z,64.86
2023-05-05T00:36:14.921Z,65.15
2023-05-05T00:38:41.871Z,65.26
2023-05-05T00:41:08.816Z,65.63
2023-05-05T00:43:36.289Z,65.92
2023-05-05T00:46:19.395Z,65.99
2023-05-05T00:48:46.657Z,66.00
2023-05-05T00:51:15.787Z,65.85
2023-05-05T00:53:45.101Z,65.49
2023-05-05T00:56:19.785Z,65.77
2023-05-05T00:58:46.885Z,65.88
2023-05-05T01:01:13.943Z,65.77
2023-05-05T01:03:43.932Z,65.98
2023-05-05T01:06:30.492Z,65.84
2023-05-05T01:09:02.111Z,66.85
2023-05-05T01:11:59.859Z,66.68
2023-05-05T01:14:40.926Z,66.61
2023-05-05T01:17:21.338Z,66.62
2023-05-05T01:20:06.482Z,67.00
2023-05-05T01:22:36.982Z,67.23
2023-05-05T01:25:12.516Z,67.19
2023-05-05T01:27:39.444Z,67.27
2023-05-05T01:30:28.399Z,67.62
2023-05-05T01:32:58.374Z,68.07
2023-05-05T01:35:36.679Z,67.94
2023-05-05T01:38:11.088Z,68.37
2023-05-05T01:40:43.730Z,68.05
2023-05-05T01:43:10.777Z,67.49
2023-05-05T01:45:38.933Z,67.28
2023-05-05T01:48:06.463Z,67.35
2023-05-05T01:50:33.677Z,67.45
2023-05-05T01:53:00.518Z,67.73
2023-05-05T01:55:28.826Z,67.78
2023-05-05T01:57:55.756Z,68.04
2023-05-05T02:00:25.205Z,68.42
2023-05-05T02:02:52.211Z,68.57
2023-05-05T02:05:21.952Z,68.39
2023-05-05T02:07:49.592Z,68.08
2023-05-05T02:10:16.746Z,68.30
2023-05-05T02:12:43.623Z,68.57
2023-05-05T02:15:11.475Z,68.72
2023-05-05T02:17:41.871Z,67.88
2023-05-05T02:20:11.477Z,68.05
2023-05-05T02:22:38.430Z,68.39
2023-05-05T02:25:06.151Z,68.02
2023-05-05T02:27:34.077Z,67.53
2023-05-05T02:30:04.670Z,67.25
2023-05-05T02:32:36.169Z,66.56
2023-05-05T02:35:12.793Z,66.26
2023-05-05T02:37:41.722Z,66.65
2023-05-05T02:40:09.589Z,67.01
2023-05-05T02:42:38.914Z,67.38
2023-05-05T02:45:15.636Z,67.63
2023-05-05T02:47:44.999Z,67.30
2023-05-05T02:50:12.375Z,67.17
2023-05-05T02:52:43.275Z,66.77
2023-05-05T02:55:10.599Z,66.34
2023-05-05T02:58:08.456Z,66.15
2023-05-05T03:00:47.840Z,65.97
2023-05-05T03:03:24.178Z,65.34
2023-05-05T03:06:04.690Z,65.07
2023-05-05T03:09:07.457Z,65.09
2023-05-05T03:12:05.568Z,64.69
2023-05-05T03:14:42.798Z,64.13
2023-05-05T03:17:12.214Z,63.85
2023-05-05T03:19:42.139Z,63.79
2023-05-05T03:22:09.173Z,63.49
2023-05-05T03:24:36.744Z,62.66
2023-05-05T03:27:06.178Z,61.70
2023-05-05T03:29:35.966Z,61.38
2023-05-05T03:32:04.883Z,60.42
2023-05-05T03:34:32.731Z,60.61
2023-05-05T03:37:00.128Z,60.34
2023-05-05T03:39:27.010Z,60.13
2023-05-05T03:41:54.605Z,60.98
2023-05-05T03:44:21.900Z,60.93
2023-05-05T03:46:48.930Z,60.91
2023-05-05T03:49:16.216Z,61.40
2023-05-05T03:51:43.542Z,62.06
2023-05-05T03:54:10.617Z,61.86
2023-05-05T03:56:37.741Z,61.50
2023-05-05T03:59:04.625Z,60.51
2023-05-05T04:01:31.668Z,59.74
2023-05-05T04:03:59.055Z,58.79
2023-05-05T04:06:26.573Z,57.81
2023-05-05T04:08:54.155Z,57.50
2023-05-05T04:11:21.521Z,57.97
2023-05-05T04:13:50.003Z,57.36
2023-05-05T04:16:17.621Z,57.31
2023-05-05T04:18:44.907Z,56.83
2023-05-05T04:21:11.891Z,57.26
2023-05-05T04:23:39.216Z,57.90
2023-05-05T04:26:06.821Z,58.50
2023-05-05T04:28:33.849Z,58.20
2023-05-05T04:31:02.762Z,57.08
2023-05-05T04:33:30.911Z,56.80
2023-05-05T04:35:58.507Z,59.16
2023-05-05T04:38:25.957Z,60.22
2023-05-05T04:40:53.352Z,61.08
2023-05-05T04:43:20.968Z,61.29
2023-05-05T04:45:55.474Z,61.17
2023-05-05T04:48:24.768Z,60.82
2023-05-05T04:50:51.980Z,60.21
2023-05-05T04:53:19.004Z,58.90
2023-05-05T04:55:46.035Z,58.76
2023-05-05T04:58:13.011Z,59.85
2023-05-05T05:00:39.972Z,61.18
2023-05-05T05:03:08.433Z,61.96
2023-05-05T05:05:35.396Z,62.21
2023-05-05T05:08:02.349Z,61.97
2023-05-05T05:10:29.713Z,61.43
2023-05-05T05:12:56.603Z,61.34
2023-05-05T05:15:23.632Z,61.36
2023-05-05T05:17:50.494Z,61.30
2023-05-05T05:20:17.529Z,61.51
2023-05-05T05:22:44.691Z,60.69
2023-05-05T05:25:14.328Z,59.91
2023-05-05T05:27:42.033Z,58.53
2023-05-05T05:30:11.904Z,57.86
2023-05-05T05:32:41.262Z,56.95
2023-05-05T05:35:11.562Z,54.48
2023-05-05T05:37:39.354Z,53.46
2023-05-05T05:40:08.117Z,52.86
2023-05-05T05:42:35.438Z,51.66
2023-05-05T05:45:07.474Z,50.86
2023-05-05T05:47:34.652Z,50.53
2023-05-05T05:50:01.888Z,50.95
2023-05-05T05:52:29.756Z,49.77
2023-05-05T05:54:56.643Z,49.99
2023-05-05T05:57:24.778Z,49.77
2023-05-05T05:59:52.253Z,49.04
2023-05-05T06:02:19.289Z,48.14
2023-05-05T06:04:47.292Z,47.51
2023-05-05T06:07:14.531Z,47.86
2023-05-05T06:09:41.863Z,47.23
2023-05-05T06:12:08.841Z,47.40
2023-05-05T06:14:36.300Z,47.36
2023-05-05T06:17:03.458Z,46.76
2023-05-05T06:19:30.644Z,46.84
2023-05-05T06:21:57.569Z,46.98
2023-05-05T06:24:24.858Z,46.56
2023-05-05T06:26:52.051Z,45.98
2023-05-05T06:29:18.931Z,45.83
2023-05-05T06:31:46.485Z,45.60
2023-05-05T06:34:13.584Z,45.09
2023-05-05T06:36:40.494Z,43.16
2023-05-05T06:39:07.405Z,43.26
2023-05-05T06:41:34.708Z,43.40
2023-05-05T06:44:02.683Z,42.92
2023-05-05T06:46:29.652Z,42.46
2023-05-05T06:48:56.511Z,41.69
2023-05-05T06:51:23.557Z,41.72
2023-05-05T06:53:51.264Z,41.75
2023-05-05T06:56:18.178Z,42.07
2023-05-05T06:58:45.061Z,41.75
2023-05-05T07:01:12.206Z,41.33
2023-05-05T07:03:39.152Z,41.00
2023-05-05T07:06:06.100Z,41.47
2023-05-05T07:08:33.026Z,41.27
2023-05-05T07:11:01.212Z,41.05
2023-05-05T07:13:28.139Z,40.98
2023-05-05T07:15:55.100Z,41.21
2023-05-05T07:18:22.151Z,41.37
2023-05-05T07:20:49.194Z,40.51
2023-05-05T07:23:16.236Z,39.80
2023-05-05T07:25:44.081Z,39.57
2023-05-05T07:28:11.264Z,39.49
2023-05-05T07:30:38.274Z,39.41
2023-05-05T07:33:05.353Z,39.83
2023-05-05T07:35:32.212Z,39.74
2023-05-05T07:37:59.079Z,40.14
2023-05-05T07:40:26.247Z,40.58
2023-05-05T07:42:53.248Z,40.90
2023-05-05T07:45:20.100Z,41.41
2023-05-05T07:47:47.069Z,41.44
2023-05-05T07:50:14.128Z,41.07
2023-05-05T07:52:46.880Z,41.50
2023-05-05T07:55:19.089Z,40.97
2023-05-05T07:57:46.347Z,40.65
2023-05-05T08:00:13.993Z,40.69
2023-05-05T08:02:41.688Z,41.00
2023-05-05T08:05:09.195Z,41.63
2023-05-05T08:07:41.099Z,41.63
2023-05-05T08:10:10.621Z,41.57
2023-05-05T08:12:37.775Z,41.79
2023-05-05T08:15:06.239Z,41.40
2023-05-05T08:17:50.335Z,41.26
2023-05-05T08:20:18.300Z,41.54
2023-05-05T08:22:45.366Z,41.53
2023-05-05T08:25:13.267Z,40.09
2023-05-05T08:27:41.189Z,39.01
2023-05-05T08:30:08.759Z,38.81
2023-05-05T08:32:35.728Z,38.63
2023-05-05T08:35:03.459Z,39.54
2023-05-05T08:37:50.133Z,39.49
2023-05-05T08:40:34.427Z,39.50
2023-05-05T08:43:01.517Z,39.59
2023-05-05T08:45:29.293Z,39.70
2023-05-05T08:47:57.336Z,39.68
2023-05-05T08:50:28.152Z,39.29
2023-05-05T08:53:16.646Z,39.59
2023-05-05T08:55:51.566Z,39.25
2023-05-05T08:58:19.197Z,38.32
2023-05-05T09:00:46.595Z,38.72
2023-05-05T09:03:13.656Z,38.87
2023-05-05T09:05:42.080Z,39.33
2023-05-05T09:08:10.569Z,39.52
2023-05-05T09:10:42.124Z,39.28
2023-05-05T09:13:09.288Z,39.82
2023-05-05T09:15:39.102Z,39.72
2023-05-05T09:18:09.249Z,39.53
2023-05-05T09:20:37.292Z,39.43
2023-05-05T09:23:10.960Z,39.59
2023-05-05T09:25:41.434Z,39.20
2023-05-05T09:28:16.258Z,39.12
2023-05-05T09:30:47.078Z,38.96
2023-05-05T09:33:14.377Z,39.05
2023-05-05T09:35:54.817Z,38.19
2023-05-05T09:38:24.037Z,38.23
2023-05-05T09:40:54.055Z,38.20
2023-05-05T09:43:23.043Z,38.06
2023-05-05T09:45:50.894Z,38.25
2023-05-05T09:48:28.581Z,37.81
2023-05-05T09:50:56.180Z,38.39
2023-05-05T09:53:24.182Z,38.42
2023-05-05T09:55:54.676Z,38.15
2023-05-05T09:58:26.452Z,38.50
2023-05-05T10:00:54.615Z,38.19
2023-05-05T10:03:21.874Z,38.16
2023-05-05T10:05:53.118Z,38.26
2023-05-05T10:08:21.295Z,38.06
2023-05-05T10:10:56.543Z,37.72
2023-05-05T10:13:24.371Z,37.85
2023-05-05T10:15:55.735Z,37.95
2023-05-05T10:18:30.680Z,37.36
2023-05-05T10:21:01.844Z,37.99
2023-05-05T10:23:32.501Z,38.44
2023-05-05T10:26:02.826Z,37.28
2023-05-05T10:28:46.364Z,37.19
2023-05-05T10:31:31.079Z,36.40
2023-05-05T10:34:04.186Z,36.39
2023-05-05T10:36:32.044Z,36.43
2023-05-05T10:38:59.265Z,35.84
2023-05-05T10:41:29.255Z,36.41
2023-05-05T10:43:59.571Z,36.95
2023-05-05T10:46:27.680Z,37.11
2023-05-05T10:49:00.226Z,37.00
2023-05-05T10:51:40.459Z,37.16
2023-05-05T10:54:09.032Z,37.28
2023-05-05T10:56:36.340Z,37.17
2023-05-05T10:59:03.265Z,37.00
2023-05-05T11:01:34.475Z,36.92
2023-05-05T11:04:18.225Z,36.98
2023-05-05T11:07:14.365Z,35.98
2023-05-05T11:09:58.238Z,36.32
2023-05-05T11:12:25.272Z,36.82
2023-05-05T11:15:26.736Z,36.91
2023-05-05T11:17:54.693Z,36.87
2023-05-05T11:20:37.720Z,37.08
2023-05-05T11:23:05.160Z,37.38
2023-05-05T11:25:40.928Z,37.49
2023-05-05T11:28:08.504Z,36.01
2023-05-05T11:30:36.296Z,36.23
2023-05-05T11:33:37.134Z,36.48
2023-05-05T11:36:06.829Z,36.97
2023-05-05T11:39:19.562Z,36.67
2023-05-05T11:42:10.109Z,36.30
2023-05-05T11:44:37.375Z,35.15
2023-05-05T11:47:04.413Z,35.18
2023-05-05T11:49:32.134Z,35.65
2023-05-05T11:52:08.756Z,35.81
2023-05-05T11:54:36.395Z,36.11
2023-05-05T11:57:05.579Z,36.18
2023-05-05T11:59:33.127Z,36.14
2023-05-05T12:02:00.483Z,36.60
2023-05-05T12:04:27.806Z,36.14
2023-05-05T12:06:55.565Z,36.55
2023-05-05T12:09:22.982Z,36.28
2023-05-05T12:11:50.808Z,36.29
2023-05-05T12:14:17.900Z,36.53
2023-05-05T12:16:57.696Z,37.04
2023-05-05T12:19:24.799Z,36.65
2023-05-05T12:21:54.404Z,36.65
2023-05-05T12:24:21.309Z,36.33
2023-05-05T12:26:48.314Z,36.14
2023-05-05T12:29:24.495Z,36.14
2023-05-05T12:31:51.758Z,36.81
2023-05-05T12:34:18.883Z,36.57
2023-05-05T12:36:46.087Z,36.51
2023-05-05T12:39:13.110Z,36.35
2023-05-05T12:41:40.248Z,36.61
2023-05-05T12:44:08.047Z,36.17
2023-05-05T12:46:45.535Z,36.14
2023-05-05T12:49:12.614Z,35.96
2023-05-05T12:51:39.616Z,36.35
2023-05-05T12:54:07.701Z,36.04
2023-05-05T12:56:35.474Z,35.25
2023-05-05T12:59:04.330Z,35.67
2023-05-05T13:01:31.456Z,35.04
2023-05-05T13:04:12.229Z,34.71
2023-05-05T13:06:40.662Z,34.60
2023-05-05T13:09:07.892Z,35.62
2023-05-05T13:11:39.203Z,35.24
2023-05-05T13:14:06.612Z,35.15
2023-05-05T13:16:34.048Z,35.36
2023-05-05T13:19:01.048Z,35.80
2023-05-05T13:21:28.212Z,35.37
2023-05-05T13:24:01.580Z,35.15
2023-05-05T13:26:39.360Z,35.22
2023-05-05T13:29:06.361Z,34.75
2023-05-05T13:31:33.358Z,34.59
2023-05-05T13:34:00.410Z,34.18
2023-05-05T13:36:27.815Z,34.42
2023-05-05T13:38:54.798Z,34.65
2023-05-05T13:41:21.704Z,34.68
2023-05-05T13:43:49.300Z,34.88
2023-05-05T13:46:20.053Z,34.64
2023-05-05T13:48:47.493Z,34.55
2023-05-05T13:51:15.885Z,34.82
2023-05-05T13:53:44.256Z,34.92
2023-05-05T13:56:11.360Z,34.97
2023-05-05T13:58:38.251Z,35.42
2023-05-05T14:01:23.719Z,35.01
2023-05-05T14:04:05.414Z,34.43
2023-05-05T14:06:34.093Z,33.88
2023-05-05T14:09:01.039Z,34.48
2023-05-05T14:11:28.109Z,35.44
2023-05-05T14:13:55.068Z,35.13
2023-05-05T14:16:22.050Z,35.56
2023-05-05T14:18:49.025Z,35.38
2023-05-05T14:21:16.008Z,35.43
2023-05-05T14:23:42.921Z,35.25
2023-05-05T14:26:09.781Z,35.38
2023-05-05T14:28:36.660Z,34.91
2023-05-05T14:31:03.716Z,34.93
2023-05-05T14:33:30.657Z,35.08
2023-05-05T14:35:57.535Z,35.29
2023-05-05T14:38:24.507Z,34.94
2023-05-05T14:40:51.509Z,34.82
2023-05-05T14:43:18.457Z,34.77
2023-05-05T14:45:45.530Z,33.93
2023-05-05T14:48:33.033Z,33.68
2023-05-05T14:51:17.005Z,33.69
2023-05-05T14:53:43.966Z,34.28
2023-05-05T14:56:31.041Z,34.59
2023-05-05T14:59:11.689Z,34.72
2023-05-05T15:01:38.611Z,35.19
2023-05-05T15:04:05.955Z,35.69
2023-05-05T15:06:32.948Z,35.82
2023-05-05T15:09:00.132Z,35.60
2023-05-05T15:11:27.017Z,35.60
2023-05-05T15:13:54.011Z,35.50
2023-05-05T15:16:21.328Z,35.55
2023-05-05T15:18:48.319Z,35.31
2023-05-05T15:21:15.609Z,35.22
2023-05-05T15:23:42.626Z,35.86
2023-05-05T15:26:09.514Z,35.78
2023-05-05T15:28:36.543Z,35.59
2023-05-05T15:31:03.702Z,35.74
2023-05-05T15:33:31.190Z,35.97
2023-05-05T15:35:58.109Z,36.13
2023-05-05T15:38:25.700Z,36.01
2023-05-05T15:40:52.715Z,35.82
2023-05-05T15:43:19.869Z,35.94
2023-05-05T15:45:46.830Z,36.18
2023-05-05T15:48:14.021Z,35.91
2023-05-05T15:50:41.027Z,35.77
2023-05-05T15:53:07.958Z,35.86
2023-05-05T15:55:35.951Z,35.94
2023-05-05T15:58:02.854Z,35.80
2023-05-05T16:00:31.597Z,35.77
2023-05-05T16:02:58.597Z,36.05
2023-05-05T16:05:25.899Z,36.01
2023-05-05T16:07:53.837Z,36.14
2023-05-05T16:10:20.969Z,36.59
2023-05-05T16:12:47.899Z,36.64
2023-05-05T16:15:14.838Z,36.89
2023-05-05T16:17:41.776Z,37.33
2023-05-05T16:20:09.406Z,37.65
2023-05-05T16:22:37.061Z,38.07
2023-05-05T16:25:04.385Z,38.42
2023-05-05T16:27:31.423Z,38.56
2023-05-05T16:29:59.805Z,38.81
2023-05-05T16:32:27.029Z,39.11
2023-05-05T16:34:54.017Z,39.65
2023-05-05T16:37:20.968Z,40.00
2023-05-05T16:39:48.024Z,40.05
2023-05-05T16:42:14.901Z,40.17
2023-05-05T16:44:41.916Z,40.46
2023-05-05T16:47:09.506Z,40.87
2023-05-05T16:49:36.550Z,40.88
2023-05-05T16:52:03.694Z,41.17
2023-05-05T16:54:30.897Z,41.16
2023-05-05T16:56:58.420Z,41.46
2023-05-05T16:59:25.285Z,42.08
2023-05-05T17:01:52.265Z,42.00
2023-05-05T17:04:19.571Z,42.31
2023-05-05T17:06:46.438Z,42.18
2023-05-05T17:09:13.330Z,42.31
2023-05-05T17:11:40.335Z,42.85
2023-05-05T17:14:07.285Z,42.91
2023-05-05T17:16:34.593Z,42.98
2023-05-05T17:19:02.000Z,43.06
2023-05-05T17:21:29.467Z,43.66
2023-05-05T17:23:57.018Z,43.53
2023-05-05T17:26:24.703Z,43.73
2023-05-05T17:28:52.004Z,43.80
2023-05-05T17:31:19.121Z,44.06
2023-05-05T17:33:46.151Z,44.28
2023-05-05T17:36:13.208Z,45.01
2023-05-05T17:38:40.138Z,44.76
2023-05-05T17:41:07.600Z,45.64
2023-05-05T17:43:34.665Z,45.62
2023-05-05T17:46:01.965Z,45.56
2023-05-05T17:48:29.018Z,45.50
2023-05-05T17:50:56.244Z,46.22
2023-05-05T17:53:23.395Z,45.49
2023-05-05T17:55:50.452Z,44.73
2023-05-05T17:58:17.398Z,44.09
2023-05-05T18:00:44.371Z,44.70
2023-05-05T18:03:11.497Z,44.88
2023-05-05T18:05:39.596Z,44.83
2023-05-05T18:08:07.045Z,45.30
2023-05-05T18:10:33.894Z,45.80
2023-05-05T18:13:00.827Z,46.70
2023-05-05T18:15:29.901Z,47.66
2023-05-05T18:17:56.893Z,48.75
2023-05-05T18:20:23.725Z,49.48
2023-05-05T18:22:50.600Z,50.31
2023-05-05T18:25:17.542Z,50.87
2023-05-05T18:27:44.606Z,51.44
2023-05-05T18:30:12.111Z,52.02
2023-05-05T18:32:39.144Z,52.68
2023-05-05T18:35:07.217Z,52.95
2023-05-05T18:37:34.550Z,53.35
2023-05-05T18:40:01.376Z,53.61
2023-05-05T18:42:28.229Z,53.80
2023-05-05T18:44:55.130Z,53.85
2023-05-05T18:47:22.359Z,54.15
2023-05-05T18:49:49.840Z,54.40
2023-05-05T18:52:17.175Z,54.46
2023-05-05T18:54:44.023Z,54.61
2023-05-05T18:57:11.086Z,54.64
2023-05-05T18:59:37.918Z,55.06
2023-05-05T19:02:04.811Z,55.48
2023-05-05T19:04:32.817Z,55.52
2023-05-05T19:07:00.331Z,55.89
2023-05-05T19:09:27.775Z,55.94
2023-05-05T19:11:54.634Z,56.20
2023-05-05T19:14:22.391Z,56.21
2023-05-05T19:16:49.413Z,56.46
2023-05-05T19:19:16.696Z,56.71
2023-05-05T19:21:43.556Z,56.85
2023-05-05T19:24:10.599Z,57.08
2023-05-05T19:26:37.573Z,57.43
2023-05-05T19:29:04.632Z,57.77
2023-05-05T19:31:31.911Z,57.90
2023-05-05T19:34:03.237Z,58.20
2023-05-05T19:36:33.802Z,58.48
2023-05-05T19:39:02.035Z,58.68
2023-05-05T19:41:30.718Z,58.85
2023-05-05T19:43:57.708Z,59.11
2023-05-05T19:46:27.552Z,59.32
2023-05-05T19:48:54.557Z,59.60
2023-05-05T19:51:21.593Z,59.81
2023-05-05T19:53:48.528Z,60.12
2023-05-05T19:56:15.483Z,60.27
2023-05-05T19:59:01.778Z,60.63
2023-05-05T20:01:29.145Z,61.08
2023-05-05T20:03:56.667Z,61.17
2023-05-05T20:06:23.859Z,61.31
2023-05-05T20:08:51.010Z,61.87
2023-05-05T20:11:18.382Z,61.98
2023-05-05T20:13:45.349Z,62.27
2023-05-05T20:16:12.580Z,62.17
2023-05-05T20:18:40.464Z,62.27
2023-05-05T20:21:07.352Z,62.22
2023-05-05T20:23:34.453Z,62.15
2023-05-05T20:26:01.812Z,62.62
2023-05-05T20:28:31.699Z,62.56
2023-05-05T20:30:58.728Z,62.94
2023-05-05T20:33:25.965Z,63.12
2023-05-05T20:35:52.805Z,63.43
2023-05-05T20:38:19.746Z,63.53
2023-05-05T20:40:46.723Z,63.61
2023-05-05T20:43:13.599Z,63.76
2023-05-05T20:45:40.489Z,63.90
2023-05-05T20:48:09.860Z,63.78
2023-05-05T20:50:40.755Z,64.13
2023-05-05T20:53:07.892Z,64.31
2023-05-05T20:55:34.915Z,64.45
2023-05-05T20:58:01.833Z,64.67
2023-05-05T21:00:28.855Z,64.75
2023-05-05T21:02:57.175Z,65.03
2023-05-05T21:05:24.485Z,64.95
2023-05-05T21:07:53.343Z,65.07
2023-05-05T21:10:20.683Z,65.18
2023-05-05T21:12:47.566Z,65.25
2023-05-05T21:15:16.696Z,65.31
2023-05-05T21:17:43.868Z,65.65
2023-05-05T21:20:11.674Z,65.83
2023-05-05T21:22:38.969Z,66.12
2023-05-05T21:25:13.806Z,66.14
2023-05-05T21:27:40.736Z,66.39
2023-05-05T21:30:10.664Z,66.16
2023-05-05T21:32:38.911Z,66.14
2023-05-05T21:35:06.926Z,66.08
2023-05-05T21:37:33.816Z,66.37
2023-05-05T21:40:01.007Z,66.58
2023-05-05T21:42:29.664Z,66.78
2023-05-05T21:44:56.787Z,66.66
2023-05-05T21:47:23.699Z,66.52
2023-05-05T21:49:50.680Z,66.49
2023-05-05T21:52:17.530Z,66.46
2023-05-05T21:54:44.581Z,66.50
2023-05-05T21:57:11.427Z,66.59
2023-05-05T21:59:38.416Z,66.76
2023-05-05T22:02:05.403Z,66.84
2023-05-05T22:04:32.227Z,67.11
2023-05-05T22:06:59.233Z,67.01
2023-05-05T22:09:26.079Z,67.28
2023-05-05T22:11:53.032Z,67.03
2023-05-05T22:14:19.981Z,67.09
2023-05-05T22:16:46.843Z,67.06
2023-05-05T22:19:13.777Z,67.24
2023-05-05T22:21:40.622Z,67.28
2023-05-05T22:24:07.660Z,67.49
2023-05-05T22:26:34.630Z,67.54
2023-05-05T22:29:01.682Z,67.32
2023-05-05T22:31:29.585Z,67.49
2023-05-05T22:33:56.512Z,67.45
2023-05-05T22:36:23.568Z,67.64
2023-05-05T22:38:50.502Z,67.90
2023-05-05T22:41:17.333Z,67.87
2023-05-05T22:43:44.352Z,67.88
2023-05-05T22:46:11.260Z,67.89
2023-05-05T22:48:38.086Z,67.67
2023-05-05T22:51:05.569Z,67.48
2023-05-05T22:53:32.401Z,67.43
2023-05-05T22:55:59.227Z,67.41
2023-05-05T22:58:26.847Z,67.45
2023-05-05T23:00:53.753Z,67.57
2023-05-05T23:03:20.633Z,67.62
2023-05-05T23:05:47.445Z,67.51
2023-05-05T23:08:14.334Z,67.53
2023-05-05T23:10:41.278Z,67.37
2023-05-05T23:13:08.214Z,67.42
2023-05-05T23:15:35.320Z,67.27
2023-05-05T23:18:02.359Z,67.37
2023-05-05T23:20:29.792Z,67.43
2023-05-05T23:22:56.706Z,67.58
2023-05-05T23:25:23.551Z,67.49
2023-05-05T23:27:50.786Z,67.65
2023-05-05T23:30:18.449Z,67.28
2023-05-05T23:32:46.023Z,67.04
2023-05-05T23:35:12.935Z,67.03
2023-05-05T23:37:39.890Z,67.12
2023-05-05T23:40:07.446Z,67.09
2023-05-05T23:42:34.405Z,67.00
2023-05-05T23:45:01.381Z,67.00
2023-05-05T23:47:28.267Z,66.82
2023-05-05T23:49:55.214Z,66.89
2023-05-05T23:52:22.605Z,66.75
2023-05-05T23:54:49.458Z,66.75
2023-05-05T23:57:16.506Z,66.53
2023-05-05T23:59:43.355Z,66.63
